Accueil
METAR-TAF:

METAR-TAF

Aéroports :

Base aérienne Cameri

Novare, Italie

latitude: 45-31N, longitude: 008-40E, altitude: 178 m

Observation

Le bulletin a été fait il y a 1 heure et 4 minutes, à 05:55 UTC
Vent 2 kt de nord-ouest
Température -3°C
Humidité 100%
Pression 1019 hPa
Visibilité: 1200 m
brume

METAR: LIMN 270555Z 31002KT 1200 BR NSC M03/M03 Q1019 RMK SKC VIS MIN 1200 AMB

Heure: 07:59 (06:59 UTC)

Prévision

Le bulletin a été fait il y a 1 heure et 59 minutes, à 05:00 UTC
Prévision valable du 27 à 06 UTC au 27 à 15 UTC
Vent 3 kt de nord
Visibilité: 5000 m
brume
Temporairement
du 27 à 06 UTC au 27 à 09 UTC
Visibilité: 0300 m
Nuages épars à une hauteur de 500 ft
brouillard

TAF: LIMN 270500Z 2706/2715 35003KT 5000 BR NSC TEMPO 2706/2709 0300 FG SCT005

Observations et prévisions météorologiques de plus de 4000 aéroports (messages METAR et TAF).

Les stations disponibles sont représentées par des disques jaunes et rouges sur la carte.

Passer la souris dessus pour voir le nom de la station.

Cliquer dessus pour voir les observations et prévisions météorologiques.

Pour changer de carte: cliquez sur les boutons verts avec une croix noire pour zoomer, sur le bouton vert avec un tiret pour effectuer un zoom arrière, ou sur les flèches vertes pour les cartes adjacentes.


METAR-TAF: